sensor_id;sensor_type;location;lat;lon;timestamp;P1;durP1;ratioP1;P2;durP2;ratioP2
21798;SDS011;24973;47.178;15.316;2023-04-24T00:00:43;3.10;;;2.90;;
21798;SDS011;24973;47.178;15.316;2023-04-24T00:03:32;4.73;;;3.20;;
21798;SDS011;24973;47.178;15.316;2023-04-24T00:06:21;4.30;;;2.83;;
21798;SDS011;24973;47.178;15.316;2023-04-24T00:09:10;5.17;;;3.70;;
21798;SDS011;24973;47.178;15.316;2023-04-24T00:11:59;4.30;;;3.90;;
21798;SDS011;24973;47.178;15.316;2023-04-24T00:14:49;3.77;;;3.47;;
21798;SDS011;24973;47.178;15.316;2023-04-24T00:17:39;3.20;;;2.90;;
21798;SDS011;24973;47.178;15.316;2023-04-24T00:20:28;3.57;;;3.27;;
21798;SDS011;24973;47.178;15.316;2023-04-24T00:23:18;3.70;;;3.30;;
21798;SDS011;24973;47.178;15.316;2023-04-24T00:26:07;3.70;;;3.40;;
21798;SDS011;24973;47.178;15.316;2023-04-24T00:28:56;3.03;;;2.80;;
21798;SDS011;24973;47.178;15.316;2023-04-24T00:31:45;6.07;;;3.83;;
21798;SDS011;24973;47.178;15.316;2023-04-24T00:34:35;4.17;;;3.60;;
21798;SDS011;24973;47.178;15.316;2023-04-24T00:37:24;3.53;;;3.23;;
21798;SDS011;24973;47.178;15.316;2023-04-24T00:40:12;4.33;;;3.10;;
21798;SDS011;24973;47.178;15.316;2023-04-24T00:43:01;4.50;;;3.77;;
21798;SDS011;24973;47.178;15.316;2023-04-24T00:45:50;4.53;;;3.27;;
21798;SDS011;24973;47.178;15.316;2023-04-24T00:48:39;4.03;;;3.63;;
21798;SDS011;24973;47.178;15.316;2023-04-24T00:51:29;3.93;;;3.57;;
21798;SDS011;24973;47.178;15.316;2023-04-24T00:54:19;4.00;;;3.47;;
21798;SDS011;24973;47.178;15.316;2023-04-24T00:57:08;3.53;;;3.13;;
21798;SDS011;24973;47.178;15.316;2023-04-24T00:59:56;6.80;;;3.50;;
21798;SDS011;24973;47.178;15.316;2023-04-24T01:02:46;4.67;;;3.80;;
21798;SDS011;24973;47.178;15.316;2023-04-24T01:05:36;4.20;;;3.80;;
21798;SDS011;24973;47.178;15.316;2023-04-24T01:08:26;6.13;;;3.33;;
21798;SDS011;24973;47.178;15.316;2023-04-24T01:11:16;3.90;;;3.60;;
21798;SDS011;24973;47.178;15.316;2023-04-24T01:14:06;5.43;;;3.87;;
21798;SDS011;24973;47.178;15.316;2023-04-24T01:16:55;4.20;;;3.80;;
21798;SDS011;24973;47.178;15.316;2023-04-24T01:19:44;5.70;;;3.97;;
21798;SDS011;24973;47.178;15.316;2023-04-24T01:22:34;4.17;;;3.13;;
21798;SDS011;24973;47.178;15.316;2023-04-24T01:25:23;4.47;;;3.50;;
21798;SDS011;24973;47.178;15.316;2023-04-24T01:28:13;10.97;;;3.60;;
21798;SDS011;24973;47.178;15.316;2023-04-24T01:31:02;9.83;;;4.47;;
21798;SDS011;24973;47.178;15.316;2023-04-24T01:33:51;5.80;;;3.80;;
21798;SDS011;24973;47.178;15.316;2023-04-24T01:36:41;4.17;;;3.47;;
21798;SDS011;24973;47.178;15.316;2023-04-24T01:39:34;4.40;;;3.97;;
21798;SDS011;24973;47.178;15.316;2023-04-24T01:42:23;3.37;;;3.07;;
21798;SDS011;24973;47.178;15.316;2023-04-24T01:45:12;3.57;;;3.27;;
21798;SDS011;24973;47.178;15.316;2023-04-24T01:48:01;4.30;;;3.90;;
21798;SDS011;24973;47.178;15.316;2023-04-24T01:50:50;4.30;;;3.57;;
21798;SDS011;24973;47.178;15.316;2023-04-24T01:53:39;4.13;;;3.73;;
21798;SDS011;24973;47.178;15.316;2023-04-24T01:56:29;9.97;;;4.40;;
21798;SDS011;24973;47.178;15.316;2023-04-24T01:59:18;5.27;;;4.63;;
21798;SDS011;24973;47.178;15.316;2023-04-24T02:02:09;9.63;;;5.70;;
21798;SDS011;24973;47.178;15.316;2023-04-24T02:04:58;4.03;;;3.70;;
21798;SDS011;24973;47.178;15.316;2023-04-24T02:07:47;4.83;;;4.43;;
21798;SDS011;24973;47.178;15.316;2023-04-24T02:10:36;5.33;;;4.70;;
21798;SDS011;24973;47.178;15.316;2023-04-24T02:13:26;4.93;;;4.43;;
21798;SDS011;24973;47.178;15.316;2023-04-24T02:16:14;7.50;;;4.00;;
21798;SDS011;24973;47.178;15.316;2023-04-24T02:19:03;4.77;;;4.23;;
21798;SDS011;24973;47.178;15.316;2023-04-24T02:21:52;10.23;;;5.17;;
21798;SDS011;24973;47.178;15.316;2023-04-24T02:24:41;6.43;;;4.80;;
21798;SDS011;24973;47.178;15.316;2023-04-24T02:27:30;5.70;;;4.80;;
21798;SDS011;24973;47.178;15.316;2023-04-24T02:30:20;4.40;;;3.63;;
21798;SDS011;24973;47.178;15.316;2023-04-24T02:33:08;6.27;;;4.67;;
21798;SDS011;24973;47.178;15.316;2023-04-24T02:35:57;13.13;;;4.40;;
21798;SDS011;24973;47.178;15.316;2023-04-24T02:38:46;4.73;;;4.20;;
21798;SDS011;24973;47.178;15.316;2023-04-24T02:41:35;4.57;;;4.17;;
21798;SDS011;24973;47.178;15.316;2023-04-24T02:44:24;6.07;;;4.07;;
21798;SDS011;24973;47.178;15.316;2023-04-24T02:47:14;6.27;;;4.60;;
21798;SDS011;24973;47.178;15.316;2023-04-24T02:50:03;6.20;;;5.20;;
21798;SDS011;24973;47.178;15.316;2023-04-24T02:52:53;5.90;;;5.03;;
21798;SDS011;24973;47.178;15.316;2023-04-24T02:55:42;4.90;;;4.40;;
21798;SDS011;24973;47.178;15.316;2023-04-24T02:58:30;6.27;;;5.50;;
21798;SDS011;24973;47.178;15.316;2023-04-24T03:01:19;5.50;;;4.80;;
21798;SDS011;24973;47.178;15.316;2023-04-24T03:04:09;5.07;;;4.50;;
21798;SDS011;24973;47.178;15.316;2023-04-24T03:06:58;7.63;;;4.70;;
21798;SDS011;24973;47.178;15.316;2023-04-24T03:09:47;7.70;;;4.73;;
21798;SDS011;24973;47.178;15.316;2023-04-24T03:12:36;7.73;;;4.60;;
21798;SDS011;24973;47.178;15.316;2023-04-24T03:15:25;8.13;;;4.93;;
21798;SDS011;24973;47.178;15.316;2023-04-24T03:18:14;6.63;;;5.70;;
21798;SDS011;24973;47.178;15.316;2023-04-24T03:21:04;5.93;;;5.30;;
21798;SDS011;24973;47.178;15.316;2023-04-24T03:23:53;8.23;;;5.30;;
21798;SDS011;24973;47.178;15.316;2023-04-24T03:26:41;6.37;;;4.87;;
21798;SDS011;24973;47.178;15.316;2023-04-24T03:29:30;5.23;;;4.73;;
21798;SDS011;24973;47.178;15.316;2023-04-24T03:32:19;6.43;;;4.53;;
21798;SDS011;24973;47.178;15.316;2023-04-24T03:35:08;5.80;;;4.07;;
21798;SDS011;24973;47.178;15.316;2023-04-24T03:37:58;6.73;;;5.13;;
21798;SDS011;24973;47.178;15.316;2023-04-24T03:40:47;5.90;;;5.10;;
21798;SDS011;24973;47.178;15.316;2023-04-24T03:43:36;5.03;;;4.53;;
21798;SDS011;24973;47.178;15.316;2023-04-24T03:46:24;6.43;;;4.70;;
21798;SDS011;24973;47.178;15.316;2023-04-24T03:49:13;5.10;;;4.60;;
21798;SDS011;24973;47.178;15.316;2023-04-24T03:52:02;5.30;;;4.40;;
21798;SDS011;24973;47.178;15.316;2023-04-24T03:54:52;7.43;;;4.60;;
21798;SDS011;24973;47.178;15.316;2023-04-24T03:57:42;5.57;;;4.97;;
21798;SDS011;24973;47.178;15.316;2023-04-24T04:00:30;8.00;;;4.97;;
21798;SDS011;24973;47.178;15.316;2023-04-24T04:03:19;6.87;;;5.43;;
21798;SDS011;24973;47.178;15.316;2023-04-24T04:06:08;6.47;;;5.87;;
21798;SDS011;24973;47.178;15.316;2023-04-24T04:08:59;6.30;;;5.30;;
21798;SDS011;24973;47.178;15.316;2023-04-24T04:11:50;5.93;;;5.33;;
21798;SDS011;24973;47.178;15.316;2023-04-24T04:14:38;7.73;;;6.03;;
21798;SDS011;24973;47.178;15.316;2023-04-24T04:17:27;6.23;;;5.63;;
21798;SDS011;24973;47.178;15.316;2023-04-24T04:20:16;8.30;;;5.93;;
21798;SDS011;24973;47.178;15.316;2023-04-24T04:23:05;5.33;;;4.83;;
21798;SDS011;24973;47.178;15.316;2023-04-24T04:25:54;5.33;;;4.83;;
21798;SDS011;24973;47.178;15.316;2023-04-24T04:28:44;6.93;;;5.03;;
21798;SDS011;24973;47.178;15.316;2023-04-24T04:31:34;7.20;;;5.27;;
21798;SDS011;24973;47.178;15.316;2023-04-24T04:34:23;5.93;;;5.30;;
21798;SDS011;24973;47.178;15.316;2023-04-24T04:37:12;7.53;;;6.60;;
21798;SDS011;24973;47.178;15.316;2023-04-24T04:40:01;7.47;;;5.13;;
21798;SDS011;24973;47.178;15.316;2023-04-24T04:42:53;7.60;;;5.47;;
21798;SDS011;24973;47.178;15.316;2023-04-24T04:45:43;7.17;;;5.47;;
21798;SDS011;24973;47.178;15.316;2023-04-24T04:48:32;6.30;;;5.57;;
21798;SDS011;24973;47.178;15.316;2023-04-24T04:51:21;8.40;;;5.87;;
21798;SDS011;24973;47.178;15.316;2023-04-24T04:54:10;6.70;;;5.97;;
21798;SDS011;24973;47.178;15.316;2023-04-24T04:56:59;8.93;;;7.23;;
21798;SDS011;24973;47.178;15.316;2023-04-24T04:59:49;7.03;;;6.37;;
21798;SDS011;24973;47.178;15.316;2023-04-24T05:02:39;7.07;;;5.87;;
21798;SDS011;24973;47.178;15.316;2023-04-24T05:05:28;7.50;;;5.77;;
21798;SDS011;24973;47.178;15.316;2023-04-24T05:08:17;6.60;;;5.67;;
21798;SDS011;24973;47.178;15.316;2023-04-24T05:11:11;5.90;;;5.33;;
21798;SDS011;24973;47.178;15.316;2023-04-24T05:14:00;6.60;;;5.63;;
21798;SDS011;24973;47.178;15.316;2023-04-24T05:16:49;6.10;;;5.50;;
21798;SDS011;24973;47.178;15.316;2023-04-24T05:19:39;6.93;;;5.93;;
21798;SDS011;24973;47.178;15.316;2023-04-24T05:22:27;9.97;;;6.50;;
21798;SDS011;24973;47.178;15.316;2023-04-24T05:25:16;7.67;;;6.50;;
21798;SDS011;24973;47.178;15.316;2023-04-24T05:28:05;7.83;;;7.03;;
21798;SDS011;24973;47.178;15.316;2023-04-24T05:30:54;8.50;;;6.63;;
21798;SDS011;24973;47.178;15.316;2023-04-24T05:33:43;7.83;;;5.97;;
21798;SDS011;24973;47.178;15.316;2023-04-24T05:39:22;8.90;;;7.13;;
21798;SDS011;24973;47.178;15.316;2023-04-24T05:42:12;7.50;;;6.70;;
21798;SDS011;24973;47.178;15.316;2023-04-24T05:45:01;7.23;;;6.53;;
21798;SDS011;24973;47.178;15.316;2023-04-24T05:47:50;5.93;;;5.33;;
21798;SDS011;24973;47.178;15.316;2023-04-24T05:50:39;5.87;;;5.37;;
21798;SDS011;24973;47.178;15.316;2023-04-24T05:53:29;5.67;;;5.17;;
21798;SDS011;24973;47.178;15.316;2023-04-24T05:56:18;5.73;;;5.20;;
21798;SDS011;24973;47.178;15.316;2023-04-24T05:59:08;6.03;;;5.43;;
21798;SDS011;24973;47.178;15.316;2023-04-24T06:01:57;12.47;;;6.50;;
21798;SDS011;24973;47.178;15.316;2023-04-24T06:04:46;6.97;;;5.93;;
21798;SDS011;24973;47.178;15.316;2023-04-24T06:07:35;6.50;;;5.83;;
21798;SDS011;24973;47.178;15.316;2023-04-24T06:10:25;8.17;;;5.83;;
21798;SDS011;24973;47.178;15.316;2023-04-24T06:13:14;6.73;;;6.03;;
21798;SDS011;24973;47.178;15.316;2023-04-24T06:16:03;6.00;;;5.43;;
21798;SDS011;24973;47.178;15.316;2023-04-24T06:18:52;8.43;;;6.10;;
21798;SDS011;24973;47.178;15.316;2023-04-24T06:21:41;5.40;;;4.90;;
21798;SDS011;24973;47.178;15.316;2023-04-24T06:24:30;7.50;;;6.03;;
21798;SDS011;24973;47.178;15.316;2023-04-24T06:27:20;8.40;;;6.73;;
21798;SDS011;24973;47.178;15.316;2023-04-24T06:30:09;13.90;;;8.90;;
21798;SDS011;24973;47.178;15.316;2023-04-24T06:32:58;9.07;;;7.87;;
21798;SDS011;24973;47.178;15.316;2023-04-24T06:35:51;7.43;;;6.27;;
21798;SDS011;24973;47.178;15.316;2023-04-24T06:38:40;7.87;;;6.33;;
21798;SDS011;24973;47.178;15.316;2023-04-24T06:41:29;8.03;;;6.20;;
21798;SDS011;24973;47.178;15.316;2023-04-24T06:44:19;8.60;;;5.33;;
21798;SDS011;24973;47.178;15.316;2023-04-24T06:47:08;9.40;;;6.53;;
21798;SDS011;24973;47.178;15.316;2023-04-24T06:49:57;9.47;;;6.60;;
21798;SDS011;24973;47.178;15.316;2023-04-24T06:52:46;9.37;;;7.23;;
21798;SDS011;24973;47.178;15.316;2023-04-24T06:55:35;8.23;;;6.53;;
21798;SDS011;24973;47.178;15.316;2023-04-24T06:58:24;8.93;;;7.10;;
21798;SDS011;24973;47.178;15.316;2023-04-24T07:01:16;9.17;;;7.27;;
21798;SDS011;24973;47.178;15.316;2023-04-24T07:04:04;7.90;;;6.60;;
21798;SDS011;24973;47.178;15.316;2023-04-24T07:06:53;7.57;;;6.87;;
21798;SDS011;24973;47.178;15.316;2023-04-24T07:09:44;6.33;;;5.73;;
21798;SDS011;24973;47.178;15.316;2023-04-24T07:12:32;7.77;;;5.60;;
21798;SDS011;24973;47.178;15.316;2023-04-24T07:15:22;7.87;;;6.20;;
21798;SDS011;24973;47.178;15.316;2023-04-24T07:18:12;8.33;;;6.87;;
21798;SDS011;24973;47.178;15.316;2023-04-24T07:21:01;10.97;;;7.00;;
21798;SDS011;24973;47.178;15.316;2023-04-24T07:23:50;8.60;;;7.10;;
21798;SDS011;24973;47.178;15.316;2023-04-24T07:26:39;10.10;;;7.70;;
21798;SDS011;24973;47.178;15.316;2023-04-24T07:29:28;10.20;;;7.07;;
21798;SDS011;24973;47.178;15.316;2023-04-24T07:32:16;6.63;;;5.27;;
21798;SDS011;24973;47.178;15.316;2023-04-24T07:35:07;8.20;;;5.63;;
21798;SDS011;24973;47.178;15.316;2023-04-24T07:37:57;9.73;;;5.40;;
21798;SDS011;24973;47.178;15.316;2023-04-24T07:40:45;8.43;;;6.03;;
21798;SDS011;24973;47.178;15.316;2023-04-24T07:43:34;8.00;;;5.93;;
21798;SDS011;24973;47.178;15.316;2023-04-24T07:46:23;5.90;;;5.33;;
21798;SDS011;24973;47.178;15.316;2023-04-24T07:49:12;11.20;;;5.93;;
21798;SDS011;24973;47.178;15.316;2023-04-24T07:52:04;8.37;;;6.50;;
21798;SDS011;24973;47.178;15.316;2023-04-24T07:54:52;7.53;;;6.47;;
21798;SDS011;24973;47.178;15.316;2023-04-24T07:57:44;10.13;;;6.50;;
21798;SDS011;24973;47.178;15.316;2023-04-24T08:00:33;8.00;;;6.77;;
21798;SDS011;24973;47.178;15.316;2023-04-24T08:03:22;8.70;;;6.17;;
21798;SDS011;24973;47.178;15.316;2023-04-24T08:06:11;7.73;;;6.53;;
21798;SDS011;24973;47.178;15.316;2023-04-24T08:09:01;13.60;;;7.33;;
21798;SDS011;24973;47.178;15.316;2023-04-24T08:11:50;10.07;;;7.30;;
21798;SDS011;24973;47.178;15.316;2023-04-24T08:14:39;11.73;;;7.53;;
21798;SDS011;24973;47.178;15.316;2023-04-24T08:17:28;9.80;;;8.80;;
21798;SDS011;24973;47.178;15.316;2023-04-24T08:20:20;13.83;;;9.13;;
21798;SDS011;24973;47.178;15.316;2023-04-24T08:23:08;10.70;;;7.40;;
21798;SDS011;24973;47.178;15.316;2023-04-24T08:25:58;8.53;;;6.97;;
21798;SDS011;24973;47.178;15.316;2023-04-24T08:28:47;9.77;;;7.67;;
21798;SDS011;24973;47.178;15.316;2023-04-24T08:31:36;10.67;;;7.83;;
21798;SDS011;24973;47.178;15.316;2023-04-24T08:34:25;11.23;;;8.17;;
21798;SDS011;24973;47.178;15.316;2023-04-24T08:37:13;9.43;;;7.70;;
21798;SDS011;24973;47.178;15.316;2023-04-24T08:40:02;8.67;;;7.77;;
21798;SDS011;24973;47.178;15.316;2023-04-24T08:42:59;10.40;;;7.90;;
21798;SDS011;24973;47.178;15.316;2023-04-24T08:45:48;11.67;;;9.40;;
21798;SDS011;24973;47.178;15.316;2023-04-24T08:48:37;10.50;;;8.20;;
21798;SDS011;24973;47.178;15.316;2023-04-24T08:51:26;10.27;;;8.70;;
21798;SDS011;24973;47.178;15.316;2023-04-24T08:54:17;9.60;;;7.77;;
21798;SDS011;24973;47.178;15.316;2023-04-24T08:57:06;9.77;;;8.13;;
21798;SDS011;24973;47.178;15.316;2023-04-24T08:59:59;11.70;;;8.23;;
21798;SDS011;24973;47.178;15.316;2023-04-24T09:02:49;11.77;;;8.63;;
21798;SDS011;24973;47.178;15.316;2023-04-24T09:05:41;9.70;;;7.53;;
21798;SDS011;24973;47.178;15.316;2023-04-24T09:08:33;4.80;;;3.40;;
21798;SDS011;24973;47.178;15.316;2023-04-24T09:11:22;4.47;;;2.10;;
21798;SDS011;24973;47.178;15.316;2023-04-24T09:14:12;1.87;;;1.70;;
21798;SDS011;24973;47.178;15.316;2023-04-24T09:17:03;2.80;;;1.33;;
21798;SDS011;24973;47.178;15.316;2023-04-24T09:19:52;3.60;;;2.17;;
21798;SDS011;24973;47.178;15.316;2023-04-24T09:22:41;3.37;;;2.07;;
21798;SDS011;24973;47.178;15.316;2023-04-24T09:25:31;3.57;;;2.37;;
21798;SDS011;24973;47.178;15.316;2023-04-24T09:28:23;2.23;;;2.03;;
21798;SDS011;24973;47.178;15.316;2023-04-24T09:31:19;2.40;;;2.10;;
21798;SDS011;24973;47.178;15.316;2023-04-24T09:34:10;2.67;;;1.20;;
21798;SDS011;24973;47.178;15.316;2023-04-24T09:37:00;2.47;;;2.00;;
21798;SDS011;24973;47.178;15.316;2023-04-24T09:39:51;1.63;;;1.33;;
21798;SDS011;24973;47.178;15.316;2023-04-24T09:42:57;4.30;;;1.87;;
21798;SDS011;24973;47.178;15.316;2023-04-24T09:45:47;1.67;;;1.57;;
21798;SDS011;24973;47.178;15.316;2023-04-24T09:48:37;2.33;;;1.67;;
21798;SDS011;24973;47.178;15.316;2023-04-24T09:51:34;3.53;;;2.87;;
21798;SDS011;24973;47.178;15.316;2023-04-24T09:54:24;3.70;;;3.27;;
21798;SDS011;24973;47.178;15.316;2023-04-24T09:57:14;5.13;;;4.23;;
21798;SDS011;24973;47.178;15.316;2023-04-24T10:00:03;8.47;;;5.03;;
21798;SDS011;24973;47.178;15.316;2023-04-24T10:03:00;8.83;;;6.17;;
21798;SDS011;24973;47.178;15.316;2023-04-24T10:05:51;10.03;;;6.27;;
21798;SDS011;24973;47.178;15.316;2023-04-24T10:08:41;7.97;;;5.50;;
21798;SDS011;24973;47.178;15.316;2023-04-24T10:11:32;10.53;;;4.90;;
21798;SDS011;24973;47.178;15.316;2023-04-24T10:14:23;7.27;;;5.27;;
21798;SDS011;24973;47.178;15.316;2023-04-24T10:17:12;6.23;;;5.40;;
21798;SDS011;24973;47.178;15.316;2023-04-24T10:20:02;2.40;;;2.20;;
21798;SDS011;24973;47.178;15.316;2023-04-24T10:22:53;3.47;;;2.57;;
21798;SDS011;24973;47.178;15.316;2023-04-24T10:25:44;5.33;;;2.57;;
21798;SDS011;24973;47.178;15.316;2023-04-24T10:28:33;2.73;;;2.37;;
21798;SDS011;24973;47.178;15.316;2023-04-24T10:31:24;4.53;;;2.50;;
21798;SDS011;24973;47.178;15.316;2023-04-24T10:34:14;2.67;;;2.27;;
21798;SDS011;24973;47.178;15.316;2023-04-24T10:37:05;3.33;;;2.53;;
21798;SDS011;24973;47.178;15.316;2023-04-24T10:39:54;2.83;;;2.53;;
21798;SDS011;24973;47.178;15.316;2023-04-24T10:42:45;2.87;;;2.37;;
21798;SDS011;24973;47.178;15.316;2023-04-24T10:45:36;2.10;;;1.90;;
21798;SDS011;24973;47.178;15.316;2023-04-24T10:48:26;4.13;;;2.10;;
21798;SDS011;24973;47.178;15.316;2023-04-24T10:51:15;2.87;;;1.90;;
21798;SDS011;24973;47.178;15.316;2023-04-24T10:54:05;1.73;;;1.57;;
21798;SDS011;24973;47.178;15.316;2023-04-24T10:57:26;2.17;;;1.50;;
21798;SDS011;24973;47.178;15.316;2023-04-24T11:00:22;1.43;;;1.13;;
21798;SDS011;24973;47.178;15.316;2023-04-24T11:03:24;2.10;;;1.63;;
21798;SDS011;24973;47.178;15.316;2023-04-24T11:06:15;1.93;;;1.73;;
21798;SDS011;24973;47.178;15.316;2023-04-24T11:09:18;1.87;;;1.73;;
21798;SDS011;24973;47.178;15.316;2023-04-24T11:12:09;3.47;;;1.90;;
21798;SDS011;24973;47.178;15.316;2023-04-24T11:15:01;3.73;;;2.20;;
21798;SDS011;24973;47.178;15.316;2023-04-24T11:17:51;1.97;;;1.80;;
21798;SDS011;24973;47.178;15.316;2023-04-24T11:20:44;1.97;;;1.50;;
21798;SDS011;24973;47.178;15.316;2023-04-24T11:23:35;2.10;;;1.67;;
21798;SDS011;24973;47.178;15.316;2023-04-24T11:26:24;2.23;;;1.47;;
21798;SDS011;24973;47.178;15.316;2023-04-24T11:29:19;1.70;;;1.60;;
21798;SDS011;24973;47.178;15.316;2023-04-24T11:32:18;1.37;;;1.07;;
21798;SDS011;24973;47.178;15.316;2023-04-24T11:35:15;1.53;;;1.40;;
21798;SDS011;24973;47.178;15.316;2023-04-24T11:38:04;2.53;;;1.37;;
21798;SDS011;24973;47.178;15.316;2023-04-24T11:40:58;2.27;;;0.90;;
21798;SDS011;24973;47.178;15.316;2023-04-24T11:43:49;1.20;;;1.10;;
21798;SDS011;24973;47.178;15.316;2023-04-24T11:46:39;2.80;;;1.20;;
21798;SDS011;24973;47.178;15.316;2023-04-24T11:49:27;3.67;;;1.10;;
21798;SDS011;24973;47.178;15.316;2023-04-24T11:52:17;1.13;;;0.90;;
21798;SDS011;24973;47.178;15.316;2023-04-24T11:55:07;1.80;;;1.00;;
21798;SDS011;24973;47.178;15.316;2023-04-24T11:58:12;3.53;;;1.20;;
21798;SDS011;24973;47.178;15.316;2023-04-24T12:01:01;2.50;;;1.00;;
21798;SDS011;24973;47.178;15.316;2023-04-24T12:03:58;3.00;;;1.57;;
21798;SDS011;24973;47.178;15.316;2023-04-24T12:06:59;6.73;;;3.80;;
21798;SDS011;24973;47.178;15.316;2023-04-24T12:09:55;14.43;;;6.80;;
21798;SDS011;24973;47.178;15.316;2023-04-24T12:12:46;11.07;;;6.03;;
21798;SDS011;24973;47.178;15.316;2023-04-24T12:15:39;1.93;;;1.73;;
21798;SDS011;24973;47.178;15.316;2023-04-24T12:18:28;1.57;;;1.17;;
21798;SDS011;24973;47.178;15.316;2023-04-24T12:21:17;1.53;;;0.97;;
21798;SDS011;24973;47.178;15.316;2023-04-24T12:24:08;1.67;;;1.30;;
21798;SDS011;24973;47.178;15.316;2023-04-24T12:26:58;4.57;;;3.03;;
21798;SDS011;24973;47.178;15.316;2023-04-24T12:29:51;4.07;;;2.27;;
21798;SDS011;24973;47.178;15.316;2023-04-24T12:32:41;1.63;;;1.30;;
21798;SDS011;24973;47.178;15.316;2023-04-24T12:35:31;2.27;;;1.60;;
21798;SDS011;24973;47.178;15.316;2023-04-24T12:38:22;4.20;;;2.43;;
21798;SDS011;24973;47.178;15.316;2023-04-24T12:41:13;14.50;;;8.17;;
21798;SDS011;24973;47.178;15.316;2023-04-24T12:44:03;4.67;;;3.50;;
21798;SDS011;24973;47.178;15.316;2023-04-24T12:46:59;3.73;;;1.60;;
21798;SDS011;24973;47.178;15.316;2023-04-24T12:49:48;1.53;;;1.10;;
21798;SDS011;24973;47.178;15.316;2023-04-24T12:52:38;2.20;;;1.60;;
21798;SDS011;24973;47.178;15.316;2023-04-24T12:55:28;6.70;;;4.87;;
21798;SDS011;24973;47.178;15.316;2023-04-24T12:58:17;3.07;;;1.87;;
21798;SDS011;24973;47.178;15.316;2023-04-24T13:01:08;2.00;;;1.17;;
21798;SDS011;24973;47.178;15.316;2023-04-24T13:03:56;4.10;;;1.43;;
21798;SDS011;24973;47.178;15.316;2023-04-24T13:06:45;0.57;;;0.50;;
21798;SDS011;24973;47.178;15.316;2023-04-24T13:09:34;2.10;;;0.93;;
21798;SDS011;24973;47.178;15.316;2023-04-24T13:12:23;1.10;;;0.83;;
21798;SDS011;24973;47.178;15.316;2023-04-24T13:15:12;1.23;;;0.93;;
21798;SDS011;24973;47.178;15.316;2023-04-24T13:18:03;0.33;;;0.30;;
21798;SDS011;24973;47.178;15.316;2023-04-24T13:20:52;1.60;;;0.93;;
21798;SDS011;24973;47.178;15.316;2023-04-24T13:23:41;2.53;;;0.60;;
21798;SDS011;24973;47.178;15.316;2023-04-24T13:26:29;0.80;;;0.60;;
21798;SDS011;24973;47.178;15.316;2023-04-24T13:29:18;3.53;;;0.70;;
21798;SDS011;24973;47.178;15.316;2023-04-24T13:32:07;0.50;;;0.50;;
21798;SDS011;24973;47.178;15.316;2023-04-24T13:34:58;1.27;;;0.60;;
21798;SDS011;24973;47.178;15.316;2023-04-24T13:37:46;0.93;;;0.80;;
21798;SDS011;24973;47.178;15.316;2023-04-24T13:40:35;3.20;;;0.67;;
21798;SDS011;24973;47.178;15.316;2023-04-24T13:43:24;1.63;;;0.40;;
21798;SDS011;24973;47.178;15.316;2023-04-24T13:46:12;0.90;;;0.60;;
21798;SDS011;24973;47.178;15.316;2023-04-24T13:49:01;0.97;;;0.60;;
21798;SDS011;24973;47.178;15.316;2023-04-24T13:51:52;1.40;;;0.47;;
21798;SDS011;24973;47.178;15.316;2023-04-24T13:54:42;0.40;;;0.40;;
21798;SDS011;24973;47.178;15.316;2023-04-24T13:57:30;0.73;;;0.53;;
21798;SDS011;24973;47.178;15.316;2023-04-24T14:00:19;1.00;;;0.70;;
21798;SDS011;24973;47.178;15.316;2023-04-24T14:03:09;0.50;;;0.50;;
21798;SDS011;24973;47.178;15.316;2023-04-24T14:05:58;1.10;;;0.50;;
21798;SDS011;24973;47.178;15.316;2023-04-24T14:08:48;1.33;;;0.50;;
21798;SDS011;24973;47.178;15.316;2023-04-24T14:11:38;0.97;;;0.60;;
21798;SDS011;24973;47.178;15.316;2023-04-24T14:14:27;1.30;;;0.63;;
21798;SDS011;24973;47.178;15.316;2023-04-24T14:17:16;1.17;;;0.77;;
21798;SDS011;24973;47.178;15.316;2023-04-24T14:20:05;0.97;;;0.70;;
21798;SDS011;24973;47.178;15.316;2023-04-24T14:22:55;1.50;;;0.70;;
21798;SDS011;24973;47.178;15.316;2023-04-24T14:25:46;0.60;;;0.40;;
21798;SDS011;24973;47.178;15.316;2023-04-24T14:28:38;0.87;;;0.50;;
21798;SDS011;24973;47.178;15.316;2023-04-24T14:31:27;5.50;;;0.93;;
21798;SDS011;24973;47.178;15.316;2023-04-24T14:34:15;1.70;;;0.60;;
21798;SDS011;24973;47.178;15.316;2023-04-24T14:37:04;0.63;;;0.63;;
21798;SDS011;24973;47.178;15.316;2023-04-24T14:39:53;0.50;;;0.40;;
21798;SDS011;24973;47.178;15.316;2023-04-24T14:42:47;4.90;;;0.50;;
21798;SDS011;24973;47.178;15.316;2023-04-24T14:45:37;3.40;;;0.90;;
21798;SDS011;24973;47.178;15.316;2023-04-24T14:48:27;2.97;;;1.00;;
21798;SDS011;24973;47.178;15.316;2023-04-24T14:51:16;2.30;;;0.70;;
21798;SDS011;24973;47.178;15.316;2023-04-24T14:54:05;0.83;;;0.57;;
21798;SDS011;24973;47.178;15.316;2023-04-24T14:56:54;1.50;;;0.50;;
21798;SDS011;24973;47.178;15.316;2023-04-24T14:59:45;2.00;;;0.50;;
21798;SDS011;24973;47.178;15.316;2023-04-24T15:02:33;2.93;;;0.73;;
21798;SDS011;24973;47.178;15.316;2023-04-24T15:05:26;1.10;;;0.60;;
21798;SDS011;24973;47.178;15.316;2023-04-24T15:08:15;1.23;;;0.67;;
21798;SDS011;24973;47.178;15.316;2023-04-24T15:11:04;0.77;;;0.50;;
21798;SDS011;24973;47.178;15.316;2023-04-24T15:13:52;2.47;;;0.90;;
21798;SDS011;24973;47.178;15.316;2023-04-24T15:16:42;0.63;;;0.50;;
21798;SDS011;24973;47.178;15.316;2023-04-24T15:19:31;2.70;;;0.50;;
21798;SDS011;24973;47.178;15.316;2023-04-24T15:22:20;0.80;;;0.60;;
21798;SDS011;24973;47.178;15.316;2023-04-24T15:25:09;1.60;;;0.60;;
21798;SDS011;24973;47.178;15.316;2023-04-24T15:27:58;2.30;;;0.70;;
21798;SDS011;24973;47.178;15.316;2023-04-24T15:30:47;2.03;;;0.70;;
21798;SDS011;24973;47.178;15.316;2023-04-24T15:33:38;1.90;;;0.70;;
21798;SDS011;24973;47.178;15.316;2023-04-24T15:36:26;2.93;;;0.57;;
21798;SDS011;24973;47.178;15.316;2023-04-24T15:39:15;0.53;;;0.40;;
21798;SDS011;24973;47.178;15.316;2023-04-24T15:42:04;7.40;;;1.43;;
21798;SDS011;24973;47.178;15.316;2023-04-24T15:44:52;0.97;;;0.60;;
21798;SDS011;24973;47.178;15.316;2023-04-24T15:47:41;0.40;;;0.40;;
21798;SDS011;24973;47.178;15.316;2023-04-24T15:50:34;0.30;;;0.30;;
21798;SDS011;24973;47.178;15.316;2023-04-24T15:53:22;0.97;;;0.43;;
21798;SDS011;24973;47.178;15.316;2023-04-24T15:56:12;3.70;;;0.40;;
21798;SDS011;24973;47.178;15.316;2023-04-24T15:59:00;0.67;;;0.60;;
21798;SDS011;24973;47.178;15.316;2023-04-24T16:01:49;0.40;;;0.40;;
21798;SDS011;24973;47.178;15.316;2023-04-24T16:04:38;0.60;;;0.60;;
21798;SDS011;24973;47.178;15.316;2023-04-24T16:07:29;4.07;;;0.50;;
21798;SDS011;24973;47.178;15.316;2023-04-24T16:10:18;0.30;;;0.30;;
21798;SDS011;24973;47.178;15.316;2023-04-24T16:13:07;0.43;;;0.40;;
21798;SDS011;24973;47.178;15.316;2023-04-24T16:15:56;3.53;;;0.47;;
21798;SDS011;24973;47.178;15.316;2023-04-24T16:18:45;0.50;;;0.50;;
21798;SDS011;24973;47.178;15.316;2023-04-24T16:21:35;0.87;;;0.67;;
21798;SDS011;24973;47.178;15.316;2023-04-24T16:24:27;1.37;;;0.50;;
21798;SDS011;24973;47.178;15.316;2023-04-24T16:27:16;0.40;;;0.40;;
21798;SDS011;24973;47.178;15.316;2023-04-24T16:30:05;0.47;;;0.47;;
21798;SDS011;24973;47.178;15.316;2023-04-24T16:32:55;2.53;;;0.40;;
21798;SDS011;24973;47.178;15.316;2023-04-24T16:35:44;2.93;;;0.67;;
21798;SDS011;24973;47.178;15.316;2023-04-24T16:38:33;0.40;;;0.40;;
21798;SDS011;24973;47.178;15.316;2023-04-24T16:41:23;0.67;;;0.40;;
21798;SDS011;24973;47.178;15.316;2023-04-24T16:44:12;3.27;;;0.60;;
21798;SDS011;24973;47.178;15.316;2023-04-24T16:47:00;0.50;;;0.40;;
21798;SDS011;24973;47.178;15.316;2023-04-24T16:49:49;1.20;;;0.67;;